Предлагаем Вашему вниманию английскую версию страницы: AUTOTAF.ME 33877 - aviation weather forecast Nizhnie Serogozy

AUTOTAF 33877 - авиапрогноз Нижние Серогозы

Сегодня рассвет 03:39 UTC, восход солнца 04:10 UTC,
местный полдень 09:26 UTC, заход солнца 14:43 UTC,
наступление темноты 15:14 UTC.

Краткий прогноз 33877 на 9 часов

AUTOTAF.ME 33877 212000Z 2121/2206 20003MPS 9999 BKN019    
  FM220000 21003MPS 5000 HZ BKN011 
  FM220300 21003MPS 3000 BR BKN005 
  FM220600 23005MPS 9999 BKN011

Детальный прогноз 33877 на 24 часа

AUTOTAF.ME 33877 212000Z 2121/2221 20003MPS 9999 BKN019 TX20/2212Z TN11/2121Z  
  FM220000 21003MPS 5000 HZ BKN011 
  FM220300 21003MPS 3000 BR BKN005 
  FM220600 23005MPS 9999 BKN011 
  FM220900 25008G13MPS 9999 SCT026  
  BECMG 2213/2215 26003MPS  
  BECMG 2216/2218 OVC144  
  BECMG 2219/2221 SCT011

Подробный табличный прогноз

Время (UTC) miniAUTOTAF на 3 ч WX FZLVL
M AGL
ICE TURB Т
(°С)
Тd
(°С)
f(%) QNH
(гПа)
WIND/T
18 19004MPS 9999 OVC189 3300 MOD FL170/FL180 10 4 67 1024 ...
21 20003MPS 9999 BKN019 3300 MOD FL170/FL180 MOD FL20/FL170 11 6 72 1023 ...
22.10.2020
00 21003MPS 5000 HZ BKN011 HZ 3300 MOD FL150/FL160 11 7 76 1022 ...
03 21003MPS 3000 BR BKN005 BR 3300 MOD FL150/FL160 MOD FL30/FL120 11 9 90 1021 ...
06 23005MPS 9999 BKN011 3600 MOD FL120/FL130 14 11 82 1021 ...
09 25008G13MPS 9999 SCT026 3600 MOD FL120/FL130 MOD SFC/FL30 18 10 59 1021 ...
12 27008G13MPS 9999 FEW030 3900 MOD FL170/FL190 MOD SFC/FL30 20 9 50 1021 ...
15 26003MPS 9999 BKN166TCU 3900 MOD FL20/FL30 17 9 59 1020 ...
18 24003MPS 9999 OVC144 3900 FBL FL150/FL170 15 9 71 1021 ...
21 24003MPS 9999 SCT011 3600 FBL FL150/FL170 13 11 87 1021 ...
23.10.2020
00 23003MPS 5000 BR SCT150 BR 3600 12 11 92 1021 ...
03 VRB02MPS 5000 BR SCT350 BR 3600 12 10 92 1020 ...
06 21003MPS 9999 SCT011 3900 14 11 83 1020 ...
09 23008G13MPS 9999 BKN018 3900 MOD FL250/FL260 MOD SFC/FL30 19 12 63 1019 ...
12 23008G13MPS 9999 SCT025 3900 MOD SFC/FL40 21 11 53 1018 ...
15 22004MPS 9999 SCT320 3900 MOD FL20/FL30 17 10 65 1017 ...


Широта 46.9°, долгота 34.4°, высота 53 м абс.
Средняя высота рельефа местности 67 м абс.
Прогнозы обновляются четыре раза в сутки: в 02, 08, 14, 20 ч всемирного времени.


Выбрать прогноз по другой модели Нижние Серогозы
Онлайн-сводка гроз по Нижние Серогозы (для РФ и ближнего зарубежья)
Карта фактических гроз в окрестностях Нижние Серогозы
Динамические прогностические карты (ventusky.com)
Прогностическая карта высоты нижней границы облаков по Нижние Серогозы (windy.com)
Выбрать другой город

Прогноз предназначен для личного научно-познавательного использования частными лицами
и не предназначен для принятия важных решений и выполнения реальных полётов воздушных судов

При копировании или ином использовании любых материалов данного сайта ссылка на © meteocenter.asia обязательна.

0.87/1.5